sensor_id;sensor_type;location;lat;lon;timestamp;pressure;altitude;pressure_sealevel;temperature;humidity
46944;BME280;32678;43.852;25.952;2023-11-19T00:01:47;100948.84;;;9.95;68.40
46944;BME280;32678;43.852;25.952;2023-11-19T00:06:44;100949.75;;;9.94;67.78
46944;BME280;32678;43.852;25.952;2023-11-19T00:11:41;100945.59;;;9.87;67.12
46944;BME280;32678;43.852;25.952;2023-11-19T00:16:38;100948.59;;;9.72;68.23
46944;BME280;32678;43.852;25.952;2023-11-19T00:21:34;100938.88;;;9.77;68.42
46944;BME280;32678;43.852;25.952;2023-11-19T00:26:33;100945.19;;;9.68;68.26
46944;BME280;32678;43.852;25.952;2023-11-19T00:31:30;100945.78;;;9.79;67.58
46944;BME280;32678;43.852;25.952;2023-11-19T00:36:27;100954.75;;;9.71;67.19
46944;BME280;32678;43.852;25.952;2023-11-19T00:41:24;100954.53;;;9.09;68.72
46944;BME280;32678;43.852;25.952;2023-11-19T00:46:22;100945.50;;;8.47;71.35
46944;BME280;32678;43.852;25.952;2023-11-19T00:51:18;100943.75;;;8.47;71.93
46944;BME280;32678;43.852;25.952;2023-11-19T00:56:16;100936.72;;;8.06;74.04
46944;BME280;32678;43.852;25.952;2023-11-19T01:01:13;100939.84;;;7.80;74.56
46944;BME280;32678;43.852;25.952;2023-11-19T01:06:10;100935.97;;;7.54;74.77
46944;BME280;32678;43.852;25.952;2023-11-19T01:11:07;100937.97;;;7.39;76.03
46944;BME280;32678;43.852;25.952;2023-11-19T01:16:04;100941.41;;;7.42;75.17
46944;BME280;32678;43.852;25.952;2023-11-19T01:21:03;100947.59;;;7.36;76.13
46944;BME280;32678;43.852;25.952;2023-11-19T01:26:00;100955.31;;;7.42;76.73
46944;BME280;32678;43.852;25.952;2023-11-19T01:30:58;100950.91;;;7.44;77.57
46944;BME280;32678;43.852;25.952;2023-11-19T01:35:55;100958.72;;;7.47;76.97
46944;BME280;32678;43.852;25.952;2023-11-19T01:40:55;100954.97;;;7.62;77.07
46944;BME280;32678;43.852;25.952;2023-11-19T01:45:53;100954.97;;;8.08;75.80
46944;BME280;32678;43.852;25.952;2023-11-19T01:50:50;100947.31;;;8.43;75.12
46944;BME280;32678;43.852;25.952;2023-11-19T01:55:58;100942.78;;;8.51;73.83
46944;BME280;32678;43.852;25.952;2023-11-19T02:00:56;100929.03;;;8.43;72.68
46944;BME280;32678;43.852;25.952;2023-11-19T02:05:53;100942.19;;;7.94;72.86
46944;BME280;32678;43.852;25.952;2023-11-19T02:10:50;100928.91;;;7.59;74.53
46944;BME280;32678;43.852;25.952;2023-11-19T02:15:47;100931.31;;;7.20;76.40
46944;BME280;32678;43.852;25.952;2023-11-19T02:20:45;100941.06;;;7.09;77.56
46944;BME280;32678;43.852;25.952;2023-11-19T02:25:47;100940.31;;;7.03;78.38
46944;BME280;32678;43.852;25.952;2023-11-19T02:30:54;100935.03;;;7.07;77.95
46944;BME280;32678;43.852;25.952;2023-11-19T02:35:51;100932.66;;;6.90;78.65
46944;BME280;32678;43.852;25.952;2023-11-19T02:40:47;100932.56;;;6.98;79.17
46944;BME280;32678;43.852;25.952;2023-11-19T02:45:45;100927.66;;;6.78;80.36
46944;BME280;32678;43.852;25.952;2023-11-19T02:50:42;100913.78;;;6.76;80.11
46944;BME280;32678;43.852;25.952;2023-11-19T02:55:39;100931.50;;;6.51;81.41
46944;BME280;32678;43.852;25.952;2023-11-19T03:00:39;100938.28;;;6.63;82.47
46944;BME280;32678;43.852;25.952;2023-11-19T03:05:44;100942.94;;;7.03;81.48
46944;BME280;32678;43.852;25.952;2023-11-19T03:10:42;100946.63;;;6.86;80.75
46944;BME280;32678;43.852;25.952;2023-11-19T03:15:39;100956.41;;;6.71;82.22
46944;BME280;32678;43.852;25.952;2023-11-19T03:20:36;100954.66;;;6.73;82.07
46944;BME280;32678;43.852;25.952;2023-11-19T03:25:33;100947.56;;;6.84;81.72
46944;BME280;32678;43.852;25.952;2023-11-19T03:30:30;100950.25;;;6.76;81.26
46944;BME280;32678;43.852;25.952;2023-11-19T03:35:31;100941.16;;;6.43;83.58
46944;BME280;32678;43.852;25.952;2023-11-19T03:40:29;100944.50;;;6.55;83.60
46944;BME280;32678;43.852;25.952;2023-11-19T03:45:26;100958.81;;;6.20;86.00
46944;BME280;32678;43.852;25.952;2023-11-19T03:50:23;100975.19;;;6.30;85.12
46944;BME280;32678;43.852;25.952;2023-11-19T03:55:20;100993.31;;;6.39;86.46
46944;BME280;32678;43.852;25.952;2023-11-19T04:00:17;101003.56;;;6.52;85.93
46944;BME280;32678;43.852;25.952;2023-11-19T04:05:17;101008.50;;;6.72;85.54
46944;BME280;32678;43.852;25.952;2023-11-19T04:10:15;101011.91;;;6.79;85.57
46944;BME280;32678;43.852;25.952;2023-11-19T04:15:14;101014.84;;;7.17;83.07
46944;BME280;32678;43.852;25.952;2023-11-19T04:20:11;101014.31;;;7.49;82.36
46944;BME280;32678;43.852;25.952;2023-11-19T04:25:10;101020.69;;;7.85;81.73
46944;BME280;32678;43.852;25.952;2023-11-19T04:30:07;101037.72;;;8.04;79.83
46944;BME280;32678;43.852;25.952;2023-11-19T04:35:07;101042.72;;;8.16;79.13
46944;BME280;32678;43.852;25.952;2023-11-19T04:40:04;101046.72;;;8.36;78.08
46944;BME280;32678;43.852;25.952;2023-11-19T04:45:02;101043.38;;;8.29;76.49
46944;BME280;32678;43.852;25.952;2023-11-19T04:50:01;101044.09;;;8.39;76.05
46944;BME280;32678;43.852;25.952;2023-11-19T04:54:58;101047.13;;;8.60;76.31
46944;BME280;32678;43.852;25.952;2023-11-19T04:59:55;101063.63;;;8.64;75.01
46944;BME280;32678;43.852;25.952;2023-11-19T05:04:53;101081.25;;;8.54;73.79
46944;BME280;32678;43.852;25.952;2023-11-19T05:09:51;101068.34;;;8.45;74.16
46944;BME280;32678;43.852;25.952;2023-11-19T05:14:48;101070.22;;;8.37;74.09
46944;BME280;32678;43.852;25.952;2023-11-19T05:19:48;101072.75;;;8.42;74.76
46944;BME280;32678;43.852;25.952;2023-11-19T05:24:45;101082.13;;;8.52;74.53
46944;BME280;32678;43.852;25.952;2023-11-19T05:29:42;101084.38;;;8.70;74.54
46944;BME280;32678;43.852;25.952;2023-11-19T05:34:39;101091.81;;;8.90;73.99
46944;BME280;32678;43.852;25.952;2023-11-19T05:39:49;101113.88;;;8.77;72.99
46944;BME280;32678;43.852;25.952;2023-11-19T05:44:45;101114.69;;;8.80;72.92
46944;BME280;32678;43.852;25.952;2023-11-19T05:49:42;101125.91;;;8.85;73.33
46944;BME280;32678;43.852;25.952;2023-11-19T05:54:39;101127.47;;;8.00;74.51
46944;BME280;32678;43.852;25.952;2023-11-19T05:59:37;101123.50;;;7.14;78.55
46944;BME280;32678;43.852;25.952;2023-11-19T06:04:33;101113.50;;;6.82;80.75
46944;BME280;32678;43.852;25.952;2023-11-19T06:09:30;101117.03;;;6.75;82.16
46944;BME280;32678;43.852;25.952;2023-11-19T06:14:29;101107.53;;;6.74;81.70
46944;BME280;32678;43.852;25.952;2023-11-19T06:19:27;101107.47;;;6.77;81.74
46944;BME280;32678;43.852;25.952;2023-11-19T06:24:26;101110.09;;;6.75;83.18
46944;BME280;32678;43.852;25.952;2023-11-19T06:29:23;101108.91;;;7.01;82.44
46944;BME280;32678;43.852;25.952;2023-11-19T06:34:20;101093.34;;;6.96;80.81
46944;BME280;32678;43.852;25.952;2023-11-19T06:39:18;101107.19;;;7.00;81.39
46944;BME280;32678;43.852;25.952;2023-11-19T06:44:17;101100.28;;;6.99;81.27
46944;BME280;32678;43.852;25.952;2023-11-19T06:49:13;101122.00;;;6.94;82.17
46944;BME280;32678;43.852;25.952;2023-11-19T06:54:10;101130.94;;;6.75;82.52
46944;BME280;32678;43.852;25.952;2023-11-19T06:59:08;101146.50;;;6.81;83.71
46944;BME280;32678;43.852;25.952;2023-11-19T07:04:05;101139.25;;;7.06;83.24
46944;BME280;32678;43.852;25.952;2023-11-19T07:09:05;101134.66;;;7.26;81.96
46944;BME280;32678;43.852;25.952;2023-11-19T07:14:05;101162.50;;;7.24;80.24
46944;BME280;32678;43.852;25.952;2023-11-19T07:19:03;101168.69;;;7.14;79.86
46944;BME280;32678;43.852;25.952;2023-11-19T07:24:02;101187.16;;;6.97;78.26
46944;BME280;32678;43.852;25.952;2023-11-19T07:28:58;101193.69;;;6.56;79.60
46944;BME280;32678;43.852;25.952;2023-11-19T07:33:57;101195.38;;;6.61;80.01
46944;BME280;32678;43.852;25.952;2023-11-19T07:38:55;101195.97;;;6.87;79.68
46944;BME280;32678;43.852;25.952;2023-11-19T07:43:53;101187.28;;;6.87;78.45
46944;BME280;32678;43.852;25.952;2023-11-19T07:48:50;101197.03;;;6.68;78.40
46944;BME280;32678;43.852;25.952;2023-11-19T07:53:47;101197.22;;;6.47;79.33
46944;BME280;32678;43.852;25.952;2023-11-19T07:58:44;101220.50;;;6.68;78.68
46944;BME280;32678;43.852;25.952;2023-11-19T08:03:41;101226.38;;;6.87;78.15
46944;BME280;32678;43.852;25.952;2023-11-19T08:08:54;101204.66;;;6.85;78.07
46944;BME280;32678;43.852;25.952;2023-11-19T08:13:52;101182.72;;;7.04;78.82
46944;BME280;32678;43.852;25.952;2023-11-19T08:18:52;101195.19;;;7.51;77.84
46944;BME280;32678;43.852;25.952;2023-11-19T08:23:48;101199.63;;;8.04;77.26
46944;BME280;32678;43.852;25.952;2023-11-19T08:28:48;101188.53;;;7.90;74.03
46944;BME280;32678;43.852;25.952;2023-11-19T08:33:46;101193.31;;;8.19;74.00
46944;BME280;32678;43.852;25.952;2023-11-19T08:38:43;101206.28;;;8.23;72.45
46944;BME280;32678;43.852;25.952;2023-11-19T08:43:40;101203.13;;;8.02;74.38
46944;BME280;32678;43.852;25.952;2023-11-19T08:48:37;101197.91;;;8.02;73.12
46944;BME280;32678;43.852;25.952;2023-11-19T08:53:35;101204.84;;;8.04;74.47
46944;BME280;32678;43.852;25.952;2023-11-19T08:58:32;101195.84;;;8.22;73.96
46944;BME280;32678;43.852;25.952;2023-11-19T09:03:31;101186.19;;;8.30;73.28
46944;BME280;32678;43.852;25.952;2023-11-19T09:08:28;101183.66;;;8.24;72.47
46944;BME280;32678;43.852;25.952;2023-11-19T09:13:25;101175.88;;;8.19;73.08
46944;BME280;32678;43.852;25.952;2023-11-19T09:18:22;101162.59;;;8.35;73.69
46944;BME280;32678;43.852;25.952;2023-11-19T09:23:19;101162.81;;;8.70;72.30
46944;BME280;32678;43.852;25.952;2023-11-19T09:28:16;101144.56;;;8.68;72.59
46944;BME280;32678;43.852;25.952;2023-11-19T09:33:13;101157.94;;;8.96;71.13
46944;BME280;32678;43.852;25.952;2023-11-19T09:38:11;101156.13;;;9.00;70.83
46944;BME280;32678;43.852;25.952;2023-11-19T09:43:08;101154.44;;;8.99;71.09
46944;BME280;32678;43.852;25.952;2023-11-19T09:48:06;101147.38;;;9.01;70.43
46944;BME280;32678;43.852;25.952;2023-11-19T09:53:06;101140.09;;;9.17;69.27
46944;BME280;32678;43.852;25.952;2023-11-19T09:58:02;101145.88;;;9.32;67.19
46944;BME280;32678;43.852;25.952;2023-11-19T10:02:59;101143.78;;;9.06;65.32
46944;BME280;32678;43.852;25.952;2023-11-19T10:07:56;101135.22;;;9.40;67.55
46944;BME280;32678;43.852;25.952;2023-11-19T10:12:54;101134.59;;;9.29;68.65
46944;BME280;32678;43.852;25.952;2023-11-19T10:17:55;101129.94;;;9.43;66.65
46944;BME280;32678;43.852;25.952;2023-11-19T10:22:52;101125.97;;;9.24;67.65
46944;BME280;32678;43.852;25.952;2023-11-19T10:27:49;101123.84;;;9.42;68.45
46944;BME280;32678;43.852;25.952;2023-11-19T10:32:47;101117.34;;;9.58;66.26
46944;BME280;32678;43.852;25.952;2023-11-19T10:38:00;101105.81;;;9.67;67.13
46944;BME280;32678;43.852;25.952;2023-11-19T10:43:01;101095.56;;;9.93;65.78
46944;BME280;32678;43.852;25.952;2023-11-19T10:47:59;101104.91;;;10.04;62.98
46944;BME280;32678;43.852;25.952;2023-11-19T10:52:56;101099.03;;;9.94;65.39
46944;BME280;32678;43.852;25.952;2023-11-19T10:57:56;101104.13;;;10.00;62.25
46944;BME280;32678;43.852;25.952;2023-11-19T11:02:55;101106.34;;;9.81;64.95
46944;BME280;32678;43.852;25.952;2023-11-19T11:07:57;101104.53;;;9.83;64.30
46944;BME280;32678;43.852;25.952;2023-11-19T11:12:55;101112.03;;;9.97;62.54
46944;BME280;32678;43.852;25.952;2023-11-19T11:17:54;101080.03;;;10.21;63.28
46944;BME280;32678;43.852;25.952;2023-11-19T11:23:09;101061.97;;;10.43;61.40
46944;BME280;32678;43.852;25.952;2023-11-19T11:28:13;101075.22;;;10.37;57.50
46944;BME280;32678;43.852;25.952;2023-11-19T11:33:18;101081.44;;;10.34;61.10
46944;BME280;32678;43.852;25.952;2023-11-19T11:38:17;101063.47;;;10.21;61.81
46944;BME280;32678;43.852;25.952;2023-11-19T11:48:33;101059.06;;;10.21;62.49
46944;BME280;32678;43.852;25.952;2023-11-19T11:53:32;101058.56;;;10.39;63.54
46944;BME280;32678;43.852;25.952;2023-11-19T11:58:32;101074.69;;;10.26;64.27
46944;BME280;32678;43.852;25.952;2023-11-19T12:03:29;101061.09;;;10.09;61.80
46944;BME280;32678;43.852;25.952;2023-11-19T12:08:30;101071.19;;;10.25;61.09
46944;BME280;32678;43.852;25.952;2023-11-19T12:13:42;101072.19;;;10.21;61.18
46944;BME280;32678;43.852;25.952;2023-11-19T12:18:43;101051.94;;;10.26;62.65
46944;BME280;32678;43.852;25.952;2023-11-19T12:23:46;101064.31;;;10.21;61.40
46944;BME280;32678;43.852;25.952;2023-11-19T12:28:56;101063.50;;;10.19;62.83
46944;BME280;32678;43.852;25.952;2023-11-19T12:33:53;101064.84;;;10.00;63.44
46944;BME280;32678;43.852;25.952;2023-11-19T12:38:54;101064.59;;;10.09;63.34
46944;BME280;32678;43.852;25.952;2023-11-19T12:43:51;101063.00;;;10.04;62.73
46944;BME280;32678;43.852;25.952;2023-11-19T12:48:48;101055.66;;;9.82;63.29
46944;BME280;32678;43.852;25.952;2023-11-19T12:53:48;101051.00;;;9.95;63.25
46944;BME280;32678;43.852;25.952;2023-11-19T12:58:48;101040.06;;;9.78;63.35
46944;BME280;32678;43.852;25.952;2023-11-19T13:03:45;101048.47;;;9.92;62.76
46944;BME280;32678;43.852;25.952;2023-11-19T13:08:43;101046.84;;;9.86;63.58
46944;BME280;32678;43.852;25.952;2023-11-19T13:13:56;101039.28;;;9.74;64.83
46944;BME280;32678;43.852;25.952;2023-11-19T13:18:54;101053.78;;;9.87;65.12
46944;BME280;32678;43.852;25.952;2023-11-19T13:23:51;101036.91;;;9.99;62.68
46944;BME280;32678;43.852;25.952;2023-11-19T13:28:52;101040.13;;;10.10;62.02
46944;BME280;32678;43.852;25.952;2023-11-19T13:33:51;101039.78;;;9.90;62.48
46944;BME280;32678;43.852;25.952;2023-11-19T13:38:48;101035.88;;;9.72;63.04
46944;BME280;32678;43.852;25.952;2023-11-19T13:43:46;101051.72;;;10.02;61.46
46944;BME280;32678;43.852;25.952;2023-11-19T13:48:43;101052.03;;;9.88;62.37
46944;BME280;32678;43.852;25.952;2023-11-19T13:53:48;101052.72;;;9.96;62.15
46944;BME280;32678;43.852;25.952;2023-11-19T13:58:48;101049.19;;;9.97;61.73
46944;BME280;32678;43.852;25.952;2023-11-19T14:03:45;101037.53;;;10.09;62.46
46944;BME280;32678;43.852;25.952;2023-11-19T14:08:45;101020.69;;;10.19;62.30
46944;BME280;32678;43.852;25.952;2023-11-19T14:13:42;101041.56;;;9.88;62.48
46944;BME280;32678;43.852;25.952;2023-11-19T14:18:39;101054.78;;;9.83;62.81
46944;BME280;32678;43.852;25.952;2023-11-19T14:23:36;101046.22;;;9.77;63.36
46944;BME280;32678;43.852;25.952;2023-11-19T14:28:33;101041.56;;;9.88;63.43
46944;BME280;32678;43.852;25.952;2023-11-19T14:33:30;101048.72;;;9.81;63.17
46944;BME280;32678;43.852;25.952;2023-11-19T14:38:28;101040.16;;;9.75;63.43
46944;BME280;32678;43.852;25.952;2023-11-19T14:43:25;101046.13;;;9.81;63.21
46944;BME280;32678;43.852;25.952;2023-11-19T14:48:22;101065.22;;;9.85;63.23
46944;BME280;32678;43.852;25.952;2023-11-19T14:53:20;101072.06;;;9.90;63.51
46944;BME280;32678;43.852;25.952;2023-11-19T14:58:17;101080.31;;;9.74;63.17
46944;BME280;32678;43.852;25.952;2023-11-19T15:03:14;101084.38;;;9.50;63.87
46944;BME280;32678;43.852;25.952;2023-11-19T15:08:15;101080.28;;;9.38;64.27
46944;BME280;32678;43.852;25.952;2023-11-19T15:13:13;101063.38;;;9.16;64.90
46944;BME280;32678;43.852;25.952;2023-11-19T15:18:11;101064.38;;;9.09;65.55
46944;BME280;32678;43.852;25.952;2023-11-19T15:23:08;101074.66;;;9.18;66.03
46944;BME280;32678;43.852;25.952;2023-11-19T15:28:06;101058.25;;;9.11;65.98
46944;BME280;32678;43.852;25.952;2023-11-19T15:33:04;101041.31;;;8.89;67.78
46944;BME280;32678;43.852;25.952;2023-11-19T15:38:00;101044.81;;;8.88;68.47
46944;BME280;32678;43.852;25.952;2023-11-19T15:42:58;101045.09;;;8.75;68.50
46944;BME280;32678;43.852;25.952;2023-11-19T15:47:55;101046.28;;;8.60;68.47
46944;BME280;32678;43.852;25.952;2023-11-19T15:52:52;101052.44;;;8.56;68.91
46944;BME280;32678;43.852;25.952;2023-11-19T15:57:52;101053.38;;;8.53;68.03
46944;BME280;32678;43.852;25.952;2023-11-19T16:02:49;101055.00;;;8.59;68.13
46944;BME280;32678;43.852;25.952;2023-11-19T16:07:48;101058.00;;;8.39;69.75
46944;BME280;32678;43.852;25.952;2023-11-19T16:12:46;101056.88;;;8.51;68.82
46944;BME280;32678;43.852;25.952;2023-11-19T16:17:43;101044.97;;;8.38;69.48
46944;BME280;32678;43.852;25.952;2023-11-19T16:22:40;101049.16;;;8.46;68.77
46944;BME280;32678;43.852;25.952;2023-11-19T16:27:38;101030.16;;;8.38;67.30
46944;BME280;32678;43.852;25.952;2023-11-19T16:32:43;101036.34;;;8.33;67.25
46944;BME280;32678;43.852;25.952;2023-11-19T16:37:44;101062.41;;;8.36;67.04
46944;BME280;32678;43.852;25.952;2023-11-19T16:42:41;101062.59;;;8.25;66.97
46944;BME280;32678;43.852;25.952;2023-11-19T16:47:50;101066.22;;;8.16;68.18
46944;BME280;32678;43.852;25.952;2023-11-19T16:52:47;101065.41;;;8.14;68.05
46944;BME280;32678;43.852;25.952;2023-11-19T16:57:44;101075.69;;;8.23;67.66
46944;BME280;32678;43.852;25.952;2023-11-19T17:02:41;101079.38;;;8.12;67.95
46944;BME280;32678;43.852;25.952;2023-11-19T17:07:45;101070.91;;;7.98;68.38
46944;BME280;32678;43.852;25.952;2023-11-19T17:12:43;101067.59;;;7.88;68.72
46944;BME280;32678;43.852;25.952;2023-11-19T17:17:40;101067.69;;;7.82;68.86
46944;BME280;32678;43.852;25.952;2023-11-19T17:22:37;101046.00;;;7.80;68.34
46944;BME280;32678;43.852;25.952;2023-11-19T17:27:35;101023.16;;;7.42;69.14
46944;BME280;32678;43.852;25.952;2023-11-19T17:32:34;101023.22;;;7.36;69.74
46944;BME280;32678;43.852;25.952;2023-11-19T17:37:32;101022.22;;;7.45;69.91
46944;BME280;32678;43.852;25.952;2023-11-19T17:42:29;100999.69;;;7.40;69.39
46944;BME280;32678;43.852;25.952;2023-11-19T17:47:28;101015.97;;;7.55;69.95
46944;BME280;32678;43.852;25.952;2023-11-19T17:52:25;101015.25;;;7.47;69.84
46944;BME280;32678;43.852;25.952;2023-11-19T17:57:22;100998.09;;;7.32;70.25
46944;BME280;32678;43.852;25.952;2023-11-19T18:02:21;101010.56;;;7.67;69.13
46944;BME280;32678;43.852;25.952;2023-11-19T18:07:38;101018.63;;;7.52;69.72
46944;BME280;32678;43.852;25.952;2023-11-19T18:12:37;101009.16;;;7.48;70.16
46944;BME280;32678;43.852;25.952;2023-11-19T18:17:34;101015.78;;;7.65;69.59
46944;BME280;32678;43.852;25.952;2023-11-19T18:22:33;100987.34;;;7.52;69.43
46944;BME280;32678;43.852;25.952;2023-11-19T18:27:30;101000.41;;;7.49;69.53
46944;BME280;32678;43.852;25.952;2023-11-19T18:32:28;101002.91;;;7.56;69.61
46944;BME280;32678;43.852;25.952;2023-11-19T18:37:25;101009.16;;;7.46;69.59
46944;BME280;32678;43.852;25.952;2023-11-19T18:42:23;101004.91;;;7.40;70.84
46944;BME280;32678;43.852;25.952;2023-11-19T18:47:23;101013.44;;;7.49;69.83
46944;BME280;32678;43.852;25.952;2023-11-19T18:52:20;101006.66;;;7.38;71.04
46944;BME280;32678;43.852;25.952;2023-11-19T18:57:16;101010.97;;;7.41;69.68
46944;BME280;32678;43.852;25.952;2023-11-19T19:02:14;101013.38;;;7.55;69.43
46944;BME280;32678;43.852;25.952;2023-11-19T19:07:11;101018.59;;;7.53;69.28
46944;BME280;32678;43.852;25.952;2023-11-19T19:12:11;101009.97;;;7.50;69.66
46944;BME280;32678;43.852;25.952;2023-11-19T19:17:08;100989.31;;;7.36;70.02
46944;BME280;32678;43.852;25.952;2023-11-19T19:22:06;100984.19;;;7.30;70.22
46944;BME280;32678;43.852;25.952;2023-11-19T19:27:04;100974.94;;;7.11;69.62
46944;BME280;32678;43.852;25.952;2023-11-19T19:32:01;101000.47;;;7.47;69.84
46944;BME280;32678;43.852;25.952;2023-11-19T19:37:01;101007.75;;;7.24;71.26
46944;BME280;32678;43.852;25.952;2023-11-19T19:41:58;101003.19;;;7.38;70.13
46944;BME280;32678;43.852;25.952;2023-11-19T19:46:55;101013.09;;;7.16;70.94
46944;BME280;32678;43.852;25.952;2023-11-19T19:51:53;101006.06;;;7.21;70.37
46944;BME280;32678;43.852;25.952;2023-11-19T19:56:51;101007.69;;;7.28;70.11
46944;BME280;32678;43.852;25.952;2023-11-19T20:01:48;101005.00;;;7.34;68.02
46944;BME280;32678;43.852;25.952;2023-11-19T20:06:49;100994.91;;;7.12;68.98
46944;BME280;32678;43.852;25.952;2023-11-19T20:11:46;100999.19;;;7.17;69.00
46944;BME280;32678;43.852;25.952;2023-11-19T20:16:43;100988.69;;;7.22;68.90
46944;BME280;32678;43.852;25.952;2023-11-19T20:21:40;100971.00;;;7.40;67.60
46944;BME280;32678;43.852;25.952;2023-11-19T20:26:37;100974.72;;;7.24;68.38
46944;BME280;32678;43.852;25.952;2023-11-19T20:31:39;100980.72;;;7.29;68.03
46944;BME280;32678;43.852;25.952;2023-11-19T20:36:36;100964.50;;;7.12;68.00
46944;BME280;32678;43.852;25.952;2023-11-19T20:41:32;100942.34;;;6.84;68.24
46944;BME280;32678;43.852;25.952;2023-11-19T20:46:30;100955.97;;;7.00;68.59
46944;BME280;32678;43.852;25.952;2023-11-19T20:51:26;100949.91;;;7.01;67.73
46944;BME280;32678;43.852;25.952;2023-11-19T20:56:27;100962.13;;;6.95;68.10
46944;BME280;32678;43.852;25.952;2023-11-19T21:01:24;100955.81;;;7.10;67.48
46944;BME280;32678;43.852;25.952;2023-11-19T21:06:23;100971.66;;;6.98;68.16
46944;BME280;32678;43.852;25.952;2023-11-19T21:11:20;100980.38;;;6.97;67.97
46944;BME280;32678;43.852;25.952;2023-11-19T21:16:16;100975.75;;;7.14;67.23
46944;BME280;32678;43.852;25.952;2023-11-19T21:21:13;100991.66;;;6.96;67.67
46944;BME280;32678;43.852;25.952;2023-11-19T21:26:11;100963.13;;;6.87;67.40
46944;BME280;32678;43.852;25.952;2023-11-19T21:31:09;100987.34;;;6.95;67.17
46944;BME280;32678;43.852;25.952;2023-11-19T21:36:06;100981.09;;;7.05;66.52
46944;BME280;32678;43.852;25.952;2023-11-19T21:41:03;100967.63;;;6.77;68.24
46944;BME280;32678;43.852;25.952;2023-11-19T21:46:01;100973.34;;;7.02;66.86
46944;BME280;32678;43.852;25.952;2023-11-19T21:51:02;100972.75;;;6.83;67.52
46944;BME280;32678;43.852;25.952;2023-11-19T21:55:58;100964.06;;;6.83;67.31
46944;BME280;32678;43.852;25.952;2023-11-19T22:00:58;100934.53;;;6.84;67.45
46944;BME280;32678;43.852;25.952;2023-11-19T22:05:55;100932.81;;;6.81;66.79
46944;BME280;32678;43.852;25.952;2023-11-19T22:10:54;100940.41;;;6.96;67.01
46944;BME280;32678;43.852;25.952;2023-11-19T22:15:51;100934.69;;;6.70;67.33
46944;BME280;32678;43.852;25.952;2023-11-19T22:20:49;100939.16;;;6.62;67.31
46944;BME280;32678;43.852;25.952;2023-11-19T22:25:48;100944.25;;;6.71;67.62
46944;BME280;32678;43.852;25.952;2023-11-19T22:30:45;100933.75;;;6.76;67.10
46944;BME280;32678;43.852;25.952;2023-11-19T22:35:41;100932.91;;;6.75;65.94
46944;BME280;32678;43.852;25.952;2023-11-19T22:40:39;100932.00;;;6.78;66.27
46944;BME280;32678;43.852;25.952;2023-11-19T22:45:36;100938.94;;;6.79;66.13
46944;BME280;32678;43.852;25.952;2023-11-19T22:50:33;100954.66;;;6.73;66.69
46944;BME280;32678;43.852;25.952;2023-11-19T22:55:30;100945.16;;;6.69;66.63
46944;BME280;32678;43.852;25.952;2023-11-19T23:00:26;100946.25;;;6.51;66.11
46944;BME280;32678;43.852;25.952;2023-11-19T23:05:30;100933.16;;;6.57;66.26
46944;BME280;32678;43.852;25.952;2023-11-19T23:10:28;100928.63;;;6.70;65.91
46944;BME280;32678;43.852;25.952;2023-11-19T23:15:25;100914.78;;;6.68;65.77
46944;BME280;32678;43.852;25.952;2023-11-19T23:20:22;100916.50;;;6.69;66.26
46944;BME280;32678;43.852;25.952;2023-11-19T23:25:20;100902.56;;;6.70;65.84
46944;BME280;32678;43.852;25.952;2023-11-19T23:30:16;100893.34;;;6.49;66.02
46944;BME280;32678;43.852;25.952;2023-11-19T23:35:17;100895.00;;;6.55;67.22
46944;BME280;32678;43.852;25.952;2023-11-19T23:40:18;100893.97;;;6.65;66.10
46944;BME280;32678;43.852;25.952;2023-11-19T23:45:16;100896.81;;;6.48;67.33
46944;BME280;32678;43.852;25.952;2023-11-19T23:50:12;100887.84;;;6.69;66.87
46944;BME280;32678;43.852;25.952;2023-11-19T23:55:11;100900.44;;;6.36;66.46
